Huvudsida
METAR-TAF:

METAR-TAF

Flygplatser :

Björneborgs flygplats

Björneborg, Finland

latitud: 61-28N, longitud: 021-48E, höjd: 13 m

Aktuellt väderrapport

Denna rapport gjordes för 15 minuter sedan, klockan 09:50 UTC
Vind 9 kt från syd/sydväst
Temperatur 0°C
Fuktighet 93%
Tryck 1011 hPa
Sikt: 1000 m
snö

METAR: EFPO 200950Z AUTO 20009KT 1000 R12/1200U SN BKN004/// OVC009/// 00/M01 Q1011

Tid: 12:05 (10:05 UTC)

Väderprognos

Denna rapport gjordes för 13 timmar och 36 minuter sedan, klockan 20:29 UTC
Prognos gäller från 19 kl. 21 UTC till 19 kl. 23 UTC
Vind 5 kt från nordväst
Sikt 10 km eller mer
Brutna moln på en höjd av 800 ft

TAF: EFPO 192029Z 1921/1923 31005KT 9999 BKN008

Aktuella väderrapporter och prognoser från 4000 flygplatser (METAR- och TAF-rapporter).

De tillgängliga stationerna syns som gula och röda prickar på kartan.

För musen över prickarna för att se namnen på stationerna.

Klicka sedan för att få väderrapporter och prognoser.

För att ändra kartan: Klicka på de gröna knapparna med ett svart kors på för att zooma in; den gröna knappen med ett streck på för att zooma ut; eller på de gröna pilarna för angränsande kartor.


METAR-TAF: